Thunder radar more information blitzortung!


Radar de pluja more information rain snow radar


Visita la nostra xarxa de llocs de meteo:

Template documentation
and downloads

And another site



Extreme low temperature From: 13-12-2017 09:00 Until: 09:59 warning for: Extreme low temperature Level: Yellow info button

Pagina Historial Weather Underground text

Diari Resum Juny 16, 2017 Unitats:  Imperial    Mètric   Tant
« Previous Dia
SegĂźent Dia »
Diari Setmana Mensual Anual Personalitzada
  Maxima: Minima: Media:
Temperatura: 96.1 °F 73.2 °F 86.9 °F
Punt de rosada: 61.2 °F 47.5 °F 58.3 °F
Humitat: 64 % 28 % 40 %
Wind Speed: 11.5 mph 0 mph 5 mph
RĂ fegues de vent: 11.5 mph - -
Vent:- - SSW
Pression baro: 30.1 in 30 in -
Precipitacions: 0 in    
Historical Graphs
 
 
Dades de taula per Juny 16, 2017
Temps Temperatura Punt de rosada Pression baro Vent Wind Speed RĂ fegues de vent Humitat Rainfall Rate (Hourly)
00:03 79 °F 47.5 °F 30 in WNW 2.3 mph 2.3 mph 33 % 0 in
04:15 82.2 °F 56.8 °F 30.1 in Calm   2 mph 42 % 0 in
04:25 82.6 °F 57.2 °F 30.1 in NE 2 mph 3 mph 42 % 0 in
04:35 82.9 °F 56.8 °F 30.1 in NE 1 mph 3 mph 41 % 0 in
04:45 84 °F 57.7 °F 30.1 in NE 2 mph 4 mph 41 % 0 in
04:55 84.4 °F 57.4 °F 30.1 in NE 2 mph 4 mph 40 % 0 in
05:05 84.9 °F 57.9 °F 30.1 in ENE 2 mph 4 mph 40 % 0 in
10:15 85.1 °F 57.4 °F 30.1 in ENE 4.6 mph 4.6 mph 39 % 0 in
10:20 85.1 °F 56.7 °F 30.1 in ENE 4.6 mph 4.7 mph 38 % 0 in
10:25 85.3 °F 56.8 °F 30.1 in NNE 5.8 mph 5.8 mph 38 % 0 in
10:30 85.8 °F 57.4 °F 30.1 in ENE 4.7 mph 4.7 mph 38 % 0 in
10:35 86 °F 57.4 °F 30.1 in NNE 4.6 mph 4.6 mph 38 % 0 in
10:40 86.4 °F 57.7 °F 30.1 in NE 6.9 mph 6.9 mph 38 % 0 in
10:45 86.9 °F 58.3 °F 30.1 in East 3.1 mph 3.1 mph 38 % 0 in
10:50 87.1 °F 58.5 °F 30.1 in East 3.6 mph   38 % 0 in
10:55 87.4 °F 57.9 °F 30.1 in SSW 3.5 mph 3.5 mph 37 % 0 in
11:00 88.2 °F 57.7 °F 30.1 in West 3.5 mph 3.5 mph 36 % 0 in
11:05 89.4 °F 59 °F 30.1 in ESE 5.4 mph 5.4 mph 36 % 0 in
11:10 88.9 °F 58.5 °F 30.1 in SW 2.9 mph 2.9 mph 36 % 0 in
11:15 89.2 °F 58.8 °F 30.1 in NW 3.5 mph 3.5 mph 36 % 0 in
11:20 88.7 °F 58.3 °F 30.1 in NE 4.6 mph 4.6 mph 36 % 0 in
11:25 90 °F 59.4 °F 30.1 in WNW 2.4 mph 2.4 mph 36 % 0 in
11:30 90.7 °F 59.4 °F 30.1 in SSW 3.5 mph 3.5 mph 35 % 0 in
11:35 90 °F 58.6 °F 30.1 in SW 5.8 mph 5.8 mph 35 % 0 in
11:40 90.5 °F 59.2 °F 30.1 in SSW 2.3 mph 2.3 mph 35 % 0 in
11:45 91 °F 58.8 °F 30.1 in West 3.5 mph 3.5 mph 34 % 0 in
11:50 92.1 °F 59.7 °F 30.1 in South 3.1 mph 3.1 mph 34 % 0 in
11:55 92.8 °F 59.5 °F 30.1 in ESE 3.5 mph 3.5 mph 33 % 0 in
12:00 91.4 °F 58.3 °F 30.1 in WSW 6.9 mph 6.9 mph 33 % 0 in
12:05 91.4 °F 58.3 °F 30.1 in ESE 4.6 mph 4.6 mph 33 % 0 in
12:10 90.9 °F 57.7 °F 30.1 in SW 3.8 mph 3.8 mph 33 % 0 in
12:15 91.9 °F 57.9 °F 30.1 in SSE 5.8 mph 5.8 mph 32 % 0 in
12:20 91.6 °F 57.6 °F 30.1 in NW 4.6 mph 4.6 mph 32 % 0 in
12:25 91.4 °F 57.4 °F 30.1 in ENE 4.6 mph 4.6 mph 32 % 0 in
12:30 91.9 °F 57.9 °F 30.1 in North 3.5 mph 3.5 mph 32 % 0 in
12:35 91.4 °F 59.2 °F 30.1 in South 4.6 mph 4.6 mph 34 % 0 in
12:40 91.6 °F 59.2 °F 30.1 in ESE 5.8 mph 5.8 mph 34 % 0 in
12:45 90.9 °F 59.4 °F 30 in ESE 8.5 mph 8.5 mph 35 % 0 in
12:50 89.8 °F 58.5 °F 30 in ENE 6.9 mph 6.9 mph 35 % 0 in
12:55 90.7 °F 60.1 °F 30 in NNE 6.2 mph 6.2 mph 36 % 0 in
13:00 91.9 °F 59.5 °F 30 in WSW 9.2 mph 9.2 mph 34 % 0 in
13:05 93.4 °F 59.2 °F 30 in South 3.5 mph 3.5 mph 32 % 0 in
13:10 93.9 °F 59.5 °F 30 in SSW 3.5 mph 3.5 mph 32 % 0 in
13:15 94.1 °F 59.7 °F 30 in SSW 5.8 mph 5.8 mph 32 % 0 in
13:20 94.8 °F 59.5 °F 30 in SW 8.1 mph 8.1 mph 31 % 0 in
13:25 94.6 °F 58.5 °F 30 in SSW 3.5 mph 3.5 mph 30 % 0 in
13:30 94.8 °F 58.6 °F 30 in SSW 5.8 mph 5.8 mph 30 % 0 in
13:35 96.1 °F 58.6 °F 30 in SE 2.3 mph 2.3 mph 29 % 0 in
13:40 94.6 °F 57.6 °F 30 in South 11.5 mph 11.5 mph 29 % 0 in
13:45 94.8 °F 58.6 °F 30 in SW 5.8 mph 5.8 mph 30 % 0 in
13:50 95.4 °F 58.1 °F 30 in WSW 5.9 mph 5.9 mph 29 % 0 in
13:55 94.5 °F 57.4 °F 30 in SSW 10.4 mph 10.4 mph 29 % 0 in
14:00 94.8 °F 57.6 °F 30 in SSE 5.8 mph 5.8 mph 29 % 0 in
14:05 95.7 °F 57.4 °F 30 in SW 5.8 mph 5.8 mph 28 % 0 in
14:10 95.2 °F 56.8 °F 30 in West 5.8 mph 5.8 mph 28 % 0 in
14:15 95 °F 56.8 °F 30 in SSW 8.1 mph 8.1 mph 28 % 0 in
14:20 94.6 °F 57.6 °F 30 in SW 9.2 mph 9.2 mph 29 % 0 in
14:25 93.6 °F 56.5 °F 30 in SW 9.2 mph 9.2 mph 29 % 0 in
14:30 94.5 °F 57.4 °F 30 in SW 6.9 mph 6.9 mph 29 % 0 in
14:35 94.1 °F 57 °F 30 in WSW 6.9 mph 6.9 mph 29 % 0 in
14:40 93.9 °F 56.8 °F 30 in SSW 10.7 mph 10.7 mph 29 % 0 in
14:45 94.3 °F 57 °F 30 in WSW 8.1 mph 8.1 mph 29 % 0 in
14:50 93.7 °F 56.7 °F 30 in SSW 2.9 mph 2.9 mph 29 % 0 in
14:55 93.9 °F 56.8 °F 30 in SW 8.1 mph 8.1 mph 29 % 0 in
15:00 94.3 °F 57 °F 30 in WSW 6.9 mph 6.9 mph 29 % 0 in
15:05 94.5 °F 57.4 °F 30 in SSW 6.9 mph 6.9 mph 29 % 0 in
15:10 94.3 °F 57 °F 30 in SW 9.2 mph 9.2 mph 29 % 0 in
15:15 93.7 °F 57.6 °F 30 in West 4.6 mph 4.6 mph 30 % 0 in
15:20 93.9 °F 56.8 °F 30 in SSW 9.8 mph 9.8 mph 29 % 0 in
15:25 93.7 °F 57.6 °F 30 in WSW 8.7 mph 8.7 mph 30 % 0 in
15:30 93.9 °F 57.7 °F 30 in SW 5.8 mph 5.8 mph 30 % 0 in
15:35 94.1 °F 57.9 °F 30 in WSW 9.2 mph 9.2 mph 30 % 0 in
15:37 93.9 °F 57.7 °F 30 in NNW 5.8 mph 5.8 mph 30 % 0 in
15:42 94.6 °F 58.5 °F 30 in SSW 5.9 mph 5.9 mph 30 % 0 in
15:47 94.1 °F 57.9 °F 30 in SW 10.4 mph 10.4 mph 30 % 0 in
15:52 93.7 °F 57.6 °F 30 in South 8.7 mph 8.7 mph 30 % 0 in
15:57 93.6 °F 57.6 °F 30 in South 6.9 mph 6.9 mph 30 % 0 in
15:59 93.9 °F 57.7 °F 30 in SSW 5.8 mph 5.8 mph 30 % 0 in
16:04 93.9 °F 57.7 °F 30 in SW 7.8 mph 7.8 mph 30 % 0 in
16:09 93.6 °F 57.6 °F 30 in WSW 5.8 mph 5.8 mph 30 % 0 in
16:14 93.9 °F 57.7 °F 30 in SW 6.9 mph 6.9 mph 30 % 0 in
16:19 94.3 °F 58.1 °F 30 in SSW 6.9 mph 6.9 mph 30 % 0 in
16:24 94.5 °F 58.3 °F 30 in SW 5.8 mph 5.8 mph 30 % 0 in
16:29 94.5 °F 58.3 °F 30 in SW 10.4 mph 10.4 mph 30 % 0 in
16:34 93.7 °F 57.6 °F 30 in SW 9.2 mph 9.2 mph 30 % 0 in
16:39 93.4 °F 57.4 °F 30 in SW 8.7 mph 8.7 mph 30 % 0 in
16:44 93.9 °F 57.7 °F 30 in ESE 6.9 mph 6.9 mph 30 % 0 in
16:49 93.4 °F 57.4 °F 30 in South 8.1 mph 8.1 mph 30 % 0 in
16:54 93.2 °F 57.2 °F 30 in South 6.4 mph 6.4 mph 30 % 0 in
16:59 93.2 °F 57.2 °F 30 in SSE 7.1 mph 7.1 mph 30 % 0 in
17:04 92.5 °F 56.5 °F 30 in SSW 10.4 mph 10.4 mph 30 % 0 in
17:09 92.8 °F 56.8 °F 30 in SSE 8.1 mph 8.1 mph 30 % 0 in
17:14 92.8 °F 57.7 °F 30 in SSW 9.2 mph 9.2 mph 31 % 0 in
17:19 92.8 °F 57.7 °F 30 in WSW 9.2 mph 9.2 mph 31 % 0 in
17:24 92.8 °F 57.7 °F 30 in SW 8.1 mph 8.1 mph 31 % 0 in
17:29 92.5 °F 57.4 °F 30 in SW 8.1 mph 8.1 mph 31 % 0 in
17:34 92.8 °F 57.7 °F 30 in SW 8.7 mph 8.7 mph 31 % 0 in
17:39 92.3 °F 58.3 °F 30 in SSE 6.9 mph 6.9 mph 32 % 0 in
17:44 92.3 °F 58.3 °F 30 in SW 9.2 mph 9.2 mph 32 % 0 in
17:49 92.5 °F 58.3 °F 30 in South 8.1 mph 8.1 mph 32 % 0 in
17:54 92.1 °F 57.9 °F 30 in SSW 8.1 mph 8.1 mph 32 % 0 in
17:59 91.2 °F 57.2 °F 30 in SW 10.5 mph 10.5 mph 32 % 0 in
18:04 91.4 °F 57.4 °F 30 in WSW 3.5 mph 4 mph 32 % 0 in
18:09 91.2 °F 58.1 °F 30 in SE 3.5 mph 3.5 mph 33 % 0 in
18:14 91 °F 57.9 °F 30 in SW 6.9 mph 6.9 mph 33 % 0 in
18:19 90.9 °F 57.7 °F 30 in SSW 3.5 mph 3.5 mph 33 % 0 in
18:24 91.2 °F 58.1 °F 30 in South 4.6 mph 4.6 mph 33 % 0 in
18:29 90.9 °F 57.7 °F 30 in WSW 5.8 mph 5.8 mph 33 % 0 in
18:34 90.5 °F 57.6 °F 30 in SW 5.8 mph 5.8 mph 33 % 0 in
18:35 90.5 °F 57.6 °F 30 in WSW 5.8 mph 5.8 mph 33 % 0 in
18:40 90.5 °F 58.3 °F 30 in SW 5.8 mph 5.8 mph 34 % 0 in
18:45 90.1 °F 57.9 °F 30 in SW 8.1 mph 8.1 mph 34 % 0 in
18:50 90 °F 57.7 °F 30 in SSE 6.9 mph 6.9 mph 34 % 0 in
18:55 89.4 °F 58.3 °F 30 in WSW 5.8 mph 5.8 mph 35 % 0 in
18:57 88.9 °F 57.7 °F 30 in South 8.1 mph 8.1 mph 35 % 0 in
19:02 88.9 °F 57.7 °F 30 in West 5.4 mph 5.4 mph 35 % 0 in
19:07 88.9 °F 57.7 °F 30 in SW 6.9 mph 6.9 mph 35 % 0 in
19:12 88.5 °F 57.4 °F 30 in SW 6.4 mph 6.4 mph 35 % 0 in
19:15 76.6 °F 60.3 °F 30.1 in SW 2 mph 2 mph 57 % 0 in
19:17 88.2 °F 57.7 °F 30 in SSW 9.2 mph 9.2 mph 36 % 0 in
19:22 88 °F 57.7 °F 30 in WSW 10.9 mph 10.9 mph 36 % 0 in
19:25 76.5 °F 60.1 °F 30.1 in SW 1 mph 2 mph 57 % 0 in
19:27 87.6 °F 58.1 °F 30 in WSW 8.1 mph 8.1 mph 37 % 0 in
19:32 87.1 °F 57.7 °F 30 in SSW 10.4 mph 10.4 mph 37 % 0 in
19:35 76.3 °F 60.4 °F 30.1 in WSW 1 mph 2 mph 58 % 0 in
19:37 86.9 °F 58.3 °F 30 in SW 6.9 mph 6.9 mph 38 % 0 in
19:42 86.9 °F 58.3 °F 30 in South 4.6 mph 4.6 mph 38 % 0 in
19:45 76.1 °F 60.3 °F 30.1 in SW 2 mph 2 mph 58 % 0 in
19:47 86.5 °F 57.9 °F 30 in SW 9.2 mph 9.2 mph 38 % 0 in
19:52 86.2 °F 57.6 °F 30 in South 5.8 mph 5.8 mph 38 % 0 in
19:57 86 °F 58.3 °F 30 in South 6.9 mph 6.9 mph 39 % 0 in
20:02 86 °F 58.3 °F 30 in SW 4 mph 4 mph 39 % 0 in
20:05 76.1 °F 60.3 °F 30.1 in WSW 1 mph 2 mph 58 % 0 in
20:07 85.8 °F 57.9 °F 30 in SSW 4.6 mph 4.6 mph 39 % 0 in
20:12 85.3 °F 57.6 °F 30 in SSW 5.8 mph 5.8 mph 39 % 0 in
20:15 76.1 °F 60.6 °F 30.1 in WSW 2 mph 2 mph 59 % 0 in
20:17 85.1 °F 57.4 °F 30 in SSW 4.6 mph 4.6 mph 39 % 0 in
20:22 84.9 °F 57.2 °F 30 in WSW 5.8 mph 5.8 mph 39 % 0 in
20:25 75.7 °F 60.4 °F 30.1 in WSW 1 mph 4 mph 59 % 0 in
20:27 84.6 °F 57.6 °F 30 in South 9.2 mph 9.2 mph 40 % 0 in
20:32 84 °F 57.7 °F 30 in West 3.5 mph 4.7 mph 41 % 0 in
20:35 75.6 °F 60.6 °F 30.1 in WSW 1 mph 3 mph 60 % 0 in
20:37 83.8 °F 57.6 °F 30 in SW 3.5 mph 3.5 mph 41 % 0 in
20:42 83.7 °F 57.6 °F 30 in SW 5.8 mph 5.8 mph 41 % 0 in
20:45 75.4 °F 60.4 °F 30.1 in WSW 1 mph 4 mph 60 % 0 in
20:47 83.3 °F 57.7 °F 30 in WSW 5.8 mph 5.8 mph 42 % 0 in
20:52 83.1 °F 57.6 °F 30 in SSW 4.6 mph 4.6 mph 42 % 0 in
20:55 75.4 °F 60.4 °F 30.1 in WSW 1 mph 2 mph 60 % 0 in
20:57 82.6 °F 57.7 °F 30 in SW 3.5 mph 3.5 mph 43 % 0 in
21:02 82.6 °F 57.7 °F 30 in SSW 6 mph 6 mph 43 % 0 in
21:05 75 °F 60.6 °F 30.1 in WSW 1 mph 3 mph 61 % 0 in
21:07 82.2 °F 58.1 °F 30 in SW 2.6 mph 2.6 mph 44 % 0 in
21:12 82 °F 57.9 °F 30 in SW 5.8 mph 5.8 mph 44 % 0 in
21:15 74.8 °F 61 °F 30.1 in WSW 1 mph 3 mph 62 % 0 in
21:17 81.7 °F 58.3 °F 30 in South 9.2 mph 9.2 mph 45 % 0 in
21:22 81.3 °F 57.9 °F 30 in SSE 3.5 mph 3.5 mph 45 % 0 in
21:25 74.7 °F 61.2 °F 30.1 in WSW 1 mph 2 mph 63 % 0 in
21:27 81.1 °F 57.7 °F 30 in SSW 2.6 mph 2.6 mph 45 % 0 in
21:32 81 °F 57.6 °F 30 in WSW 3.5 mph 3.5 mph 45 % 0 in
21:35 74.5 °F 61.2 °F 30.1 in SW 1 mph 3 mph 63 % 0 in
21:37 80.6 °F 57.9 °F 30 in SSW 4.6 mph 4.6 mph 46 % 0 in
21:42 80.4 °F 58.3 °F 30 in SW 3.5 mph 3.5 mph 47 % 0 in
21:45 74.3 °F 61 °F 30.1 in WSW 1 mph 3 mph 63 % 0 in
21:47 80.2 °F 58.3 °F 30 in SSE 3.5 mph 3.5 mph 47 % 0 in
21:52 80.1 °F 58.6 °F 30 in SW 3.5 mph 3.5 mph 48 % 0 in
21:55 74.1 °F 60.6 °F 30 in WSW 1 mph 2 mph 63 % 0 in
21:57 79.9 °F 59 °F 30 in SW 1.6 mph 1.6 mph 49 % 0 in
22:02 79.5 °F 58.6 °F 30 in WSW 3.5 mph 3.5 mph 49 % 0 in
22:05 73.9 °F 60.4 °F 30 in WSW 2 mph 2 mph 63 % 0 in
22:07 79.3 °F 58.5 °F 30 in SSW 3.5 mph 3.5 mph 49 % 0 in
22:12 79.2 °F 58.8 °F 30 in Calm     50 % 0 in
22:15 73.4 °F 60.4 °F 30 in Calm   2 mph 64 % 0 in
22:17 79 °F 58.8 °F 30 in SSW 4.6 mph 4.6 mph 50 % 0 in
22:22 79 °F 59.4 °F 30 in SW 2.4 mph 2.4 mph 51 % 0 in
22:25 73.2 °F 60.3 °F 30 in SW 1 mph 1 mph 64 % 0 in
22:27 78.8 °F 59.2 °F 30 in SW 1.2 mph   51 % 0 in
22:32 78.8 °F 59.2 °F 30 in WSW 3.5 mph 3.5 mph 51 % 0 in
22:35 73.2 °F 60.3 °F 30 in WSW 1 mph 2 mph 64 % 0 in
22:37 78.6 °F 59 °F 30 in SSW 2.3 mph 2.3 mph 51 % 0 in
22:42 78.4 °F 59.4 °F 30 in SW 2.3 mph 2.3 mph 52 % 0 in
22:45 78.4 °F 59.4 °F 30 in Calm     52 % 0 in
22:48 78.4 °F 59.4 °F 30 in SW 2.3 mph 2.3 mph 52 % 0 in
22:50 78.3 °F 59.2 °F 30 in SW 4.6 mph 4.6 mph 52 % 0 in
22:55 78.1 °F 59 °F 30 in SW 2.4 mph 2.4 mph 52 % 0 in
23:00 78.1 °F 59.5 °F 30.1 in SW 1.2 mph   53 % 0 in
23:05 77.9 °F 59.4 °F 30.1 in WSW 1.2 mph   53 % 0 in
23:10 77.9 °F 59.9 °F 30.1 in SSE 2.6 mph   54 % 0 in
23:15 77.7 °F 59.7 °F 30.1 in South 1.2 mph   54 % 0 in
23:20 77.7 °F 59.7 °F 30.1 in West 0.9 mph   54 % 0 in
23:25 77.7 °F 59.7 °F 30.1 in WSW 1.4 mph 1.4 mph 54 % 0 in
23:30 77.5 °F 59.5 °F 30.1 in SW 2.4 mph 2.4 mph 54 % 0 in
23:35 77.5 °F 59.5 °F 30.1 in SW 2.4 mph 2.4 mph 54 % 0 in
23:40 77.4 °F 59.9 °F 30.1 in SW 2.4 mph   55 % 0 in
23:45 77.4 °F 59.9 °F 30.1 in WSW 1.2 mph 1.2 mph 55 % 0 in
23:50 77.2 °F 59.2 °F 30.1 in SW 3.5 mph 3.5 mph 54 % 0 in
23:55 77 °F 59.5 °F 30.1 in SW 2.3 mph 2.3 mph 55 % 0 in
Meteo Sesrovires
Elogis d' Weather Underground - 3.5 mb

Guio original per  Jim McMurry - jmcmurry@mwt.net Adaptat per a la plantilla per  Wim van der Kuil - Leuven-Template.eu

Trobareu la nostra informacio del temps tambe a:

Weather Underground

AWEKAS